sensor_id;sensor_type;location;lat;lon;timestamp;P1;durP1;ratioP1;P2;durP2;ratioP2
60370;SDS011;48550;40.588;49.684;2023-09-12T00:01:25;19.90;;;10.68;;
60370;SDS011;48550;40.588;49.684;2023-09-12T00:03:51;19.90;;;11.10;;
60370;SDS011;48550;40.588;49.684;2023-09-12T00:06:16;16.85;;;9.48;;
60370;SDS011;48550;40.588;49.684;2023-09-12T00:08:42;18.60;;;9.73;;
60370;SDS011;48550;40.588;49.684;2023-09-12T00:11:08;17.23;;;9.80;;
60370;SDS011;48550;40.588;49.684;2023-09-12T00:13:36;18.75;;;10.75;;
60370;SDS011;48550;40.588;49.684;2023-09-12T00:16:03;16.17;;;9.60;;
60370;SDS011;48550;40.588;49.684;2023-09-12T00:18:30;18.35;;;10.40;;
60370;SDS011;48550;40.588;49.684;2023-09-12T00:20:56;16.88;;;9.68;;
60370;SDS011;48550;40.588;49.684;2023-09-12T00:23:24;15.90;;;9.82;;
60370;SDS011;48550;40.588;49.684;2023-09-12T00:25:50;19.17;;;9.80;;
60370;SDS011;48550;40.588;49.684;2023-09-12T00:28:19;18.23;;;9.10;;
60370;SDS011;48550;40.588;49.684;2023-09-12T00:30:46;23.67;;;10.65;;
60370;SDS011;48550;40.588;49.684;2023-09-12T00:33:11;18.45;;;10.05;;
60370;SDS011;48550;40.588;49.684;2023-09-12T00:35:37;19.05;;;10.25;;
60370;SDS011;48550;40.588;49.684;2023-09-12T00:38:03;18.00;;;10.45;;
60370;SDS011;48550;40.588;49.684;2023-09-12T00:40:29;19.35;;;10.20;;
60370;SDS011;48550;40.588;49.684;2023-09-12T00:42:55;19.58;;;10.07;;
60370;SDS011;48550;40.588;49.684;2023-09-12T00:45:21;13.45;;;7.57;;
60370;SDS011;48550;40.588;49.684;2023-09-12T00:47:47;13.18;;;8.10;;
60370;SDS011;48550;40.588;49.684;2023-09-12T00:50:14;14.85;;;6.90;;
60370;SDS011;48550;40.588;49.684;2023-09-12T00:52:41;16.63;;;8.55;;
60370;SDS011;48550;40.588;49.684;2023-09-12T00:55:08;12.20;;;6.78;;
60370;SDS011;48550;40.588;49.684;2023-09-12T00:57:34;14.35;;;6.15;;
60370;SDS011;48550;40.588;49.684;2023-09-12T01:00:04;12.32;;;6.68;;
60370;SDS011;48550;40.588;49.684;2023-09-12T01:02:42;10.07;;;5.55;;
60370;SDS011;48550;40.588;49.684;2023-09-12T01:05:11;9.35;;;5.97;;
60370;SDS011;48550;40.588;49.684;2023-09-12T01:07:39;9.18;;;5.03;;
60370;SDS011;48550;40.588;49.684;2023-09-12T01:10:05;11.45;;;6.13;;
60370;SDS011;48550;40.588;49.684;2023-09-12T01:12:32;7.30;;;4.88;;
60370;SDS011;48550;40.588;49.684;2023-09-12T01:14:58;8.65;;;5.20;;
60370;SDS011;48550;40.588;49.684;2023-09-12T01:17:24;8.73;;;5.53;;
60370;SDS011;48550;40.588;49.684;2023-09-12T01:19:50;9.82;;;5.55;;
60370;SDS011;48550;40.588;49.684;2023-09-12T01:28:05;11.50;;;5.53;;
60370;SDS011;48550;40.588;49.684;2023-09-12T01:30:34;7.95;;;5.55;;
60370;SDS011;48550;40.588;49.684;2023-09-12T01:33:01;9.15;;;5.57;;
60370;SDS011;48550;40.588;49.684;2023-09-12T01:35:28;9.52;;;5.28;;
60370;SDS011;48550;40.588;49.684;2023-09-12T01:37:53;12.00;;;8.18;;
60370;SDS011;48550;40.588;49.684;2023-09-12T01:40:24;9.68;;;5.70;;
60370;SDS011;48550;40.588;49.684;2023-09-12T01:42:59;9.90;;;5.90;;
60370;SDS011;48550;40.588;49.684;2023-09-12T01:45:28;9.50;;;5.97;;
60370;SDS011;48550;40.588;49.684;2023-09-12T01:47:54;9.07;;;5.65;;
60370;SDS011;48550;40.588;49.684;2023-09-12T01:50:20;6.45;;;4.50;;
60370;SDS011;48550;40.588;49.684;2023-09-12T01:52:47;9.52;;;5.03;;
60370;SDS011;48550;40.588;49.684;2023-09-12T01:55:14;8.63;;;5.75;;
60370;SDS011;48550;40.588;49.684;2023-09-12T01:57:41;6.90;;;4.32;;
60370;SDS011;48550;40.588;49.684;2023-09-12T02:00:08;7.63;;;4.55;;
60370;SDS011;48550;40.588;49.684;2023-09-12T02:02:34;7.38;;;4.00;;
60370;SDS011;48550;40.588;49.684;2023-09-12T02:05:10;6.68;;;4.03;;
60370;SDS011;48550;40.588;49.684;2023-09-12T02:07:42;6.72;;;4.57;;
60370;SDS011;48550;40.588;49.684;2023-09-12T02:10:08;6.30;;;4.38;;
60370;SDS011;48550;40.588;49.684;2023-09-12T02:12:35;7.32;;;4.63;;
60370;SDS011;48550;40.588;49.684;2023-09-12T02:15:01;8.57;;;4.85;;
60370;SDS011;48550;40.588;49.684;2023-09-12T02:17:27;6.13;;;4.53;;
60370;SDS011;48550;40.588;49.684;2023-09-12T02:19:53;6.60;;;4.10;;
60370;SDS011;48550;40.588;49.684;2023-09-12T02:22:18;6.85;;;3.97;;
60370;SDS011;48550;40.588;49.684;2023-09-12T02:24:44;8.70;;;4.78;;
60370;SDS011;48550;40.588;49.684;2023-09-12T02:27:10;6.32;;;3.70;;
60370;SDS011;48550;40.588;49.684;2023-09-12T02:29:36;8.52;;;4.13;;
60370;SDS011;48550;40.588;49.684;2023-09-12T02:32:03;7.90;;;3.95;;
60370;SDS011;48550;40.588;49.684;2023-09-12T02:34:29;8.43;;;3.60;;
60370;SDS011;48550;40.588;49.684;2023-09-12T02:36:55;8.40;;;4.13;;
60370;SDS011;48550;40.588;49.684;2023-09-12T02:39:21;7.78;;;4.53;;
60370;SDS011;48550;40.588;49.684;2023-09-12T02:41:46;7.85;;;4.32;;
60370;SDS011;48550;40.588;49.684;2023-09-12T02:44:12;6.57;;;4.25;;
60370;SDS011;48550;40.588;49.684;2023-09-12T02:46:38;9.43;;;5.03;;
60370;SDS011;48550;40.588;49.684;2023-09-12T02:49:03;9.75;;;4.60;;
60370;SDS011;48550;40.588;49.684;2023-09-12T02:51:29;8.20;;;5.07;;
60370;SDS011;48550;40.588;49.684;2023-09-12T02:53:55;6.05;;;4.22;;
60370;SDS011;48550;40.588;49.684;2023-09-12T02:56:21;6.05;;;3.17;;
60370;SDS011;48550;40.588;49.684;2023-09-12T02:58:47;6.88;;;3.78;;
60370;SDS011;48550;40.588;49.684;2023-09-12T03:01:16;4.65;;;3.45;;
60370;SDS011;48550;40.588;49.684;2023-09-12T03:03:43;5.13;;;3.65;;
60370;SDS011;48550;40.588;49.684;2023-09-12T03:06:11;10.02;;;4.65;;
60370;SDS011;48550;40.588;49.684;2023-09-12T03:08:39;9.60;;;4.28;;
60370;SDS011;48550;40.588;49.684;2023-09-12T03:11:05;7.65;;;3.88;;
60370;SDS011;48550;40.588;49.684;2023-09-12T03:13:32;6.47;;;3.63;;
60370;SDS011;48550;40.588;49.684;2023-09-12T03:15:59;7.75;;;4.20;;
60370;SDS011;48550;40.588;49.684;2023-09-12T03:18:25;7.78;;;4.38;;
60370;SDS011;48550;40.588;49.684;2023-09-12T03:20:51;7.45;;;4.25;;
60370;SDS011;48550;40.588;49.684;2023-09-12T03:23:16;6.07;;;3.40;;
60370;SDS011;48550;40.588;49.684;2023-09-12T03:25:42;6.43;;;2.90;;
60370;SDS011;48550;40.588;49.684;2023-09-12T03:28:08;7.93;;;3.58;;
60370;SDS011;48550;40.588;49.684;2023-09-12T03:30:34;5.47;;;3.17;;
60370;SDS011;48550;40.588;49.684;2023-09-12T03:33:02;9.13;;;3.83;;
60370;SDS011;48550;40.588;49.684;2023-09-12T03:35:29;10.85;;;3.72;;
60370;SDS011;48550;40.588;49.684;2023-09-12T03:37:57;4.80;;;2.78;;
60370;SDS011;48550;40.588;49.684;2023-09-12T03:40:22;4.90;;;3.00;;
60370;SDS011;48550;40.588;49.684;2023-09-12T03:42:48;6.68;;;3.60;;
60370;SDS011;48550;40.588;49.684;2023-09-12T03:45:14;6.90;;;4.00;;
60370;SDS011;48550;40.588;49.684;2023-09-12T03:47:40;6.95;;;3.03;;
60370;SDS011;48550;40.588;49.684;2023-09-12T03:50:06;5.85;;;3.05;;
60370;SDS011;48550;40.588;49.684;2023-09-12T03:52:32;7.28;;;3.75;;
60370;SDS011;48550;40.588;49.684;2023-09-12T03:54:57;6.65;;;3.60;;
60370;SDS011;48550;40.588;49.684;2023-09-12T03:57:25;5.85;;;3.60;;
60370;SDS011;48550;40.588;49.684;2023-09-12T03:59:51;6.22;;;3.85;;
60370;SDS011;48550;40.588;49.684;2023-09-12T04:02:18;3.60;;;2.42;;
60370;SDS011;48550;40.588;49.684;2023-09-12T04:04:44;4.80;;;3.05;;
60370;SDS011;48550;40.588;49.684;2023-09-12T04:07:09;5.80;;;3.25;;
60370;SDS011;48550;40.588;49.684;2023-09-12T04:09:35;6.18;;;3.53;;
60370;SDS011;48550;40.588;49.684;2023-09-12T04:12:01;5.78;;;2.97;;
60370;SDS011;48550;40.588;49.684;2023-09-12T04:14:27;6.78;;;3.80;;
60370;SDS011;48550;40.588;49.684;2023-09-12T04:16:53;6.07;;;3.28;;
60370;SDS011;48550;40.588;49.684;2023-09-12T04:19:18;6.00;;;2.92;;
60370;SDS011;48550;40.588;49.684;2023-09-12T04:21:44;11.05;;;4.57;;
60370;SDS011;48550;40.588;49.684;2023-09-12T04:24:10;7.10;;;3.35;;
60370;SDS011;48550;40.588;49.684;2023-09-12T04:26:36;5.03;;;3.20;;
60370;SDS011;48550;40.588;49.684;2023-09-12T04:29:02;5.40;;;3.22;;
60370;SDS011;48550;40.588;49.684;2023-09-12T04:31:27;5.95;;;3.20;;
60370;SDS011;48550;40.588;49.684;2023-09-12T04:33:53;5.60;;;3.58;;
60370;SDS011;48550;40.588;49.684;2023-09-12T04:36:20;5.68;;;3.70;;
60370;SDS011;48550;40.588;49.684;2023-09-12T04:38:46;4.72;;;3.33;;
60370;SDS011;48550;40.588;49.684;2023-09-12T04:41:12;4.40;;;2.90;;
60370;SDS011;48550;40.588;49.684;2023-09-12T04:43:42;5.45;;;3.55;;
60370;SDS011;48550;40.588;49.684;2023-09-12T04:46:11;4.90;;;3.03;;
60370;SDS011;48550;40.588;49.684;2023-09-12T04:48:38;5.93;;;3.22;;
60370;SDS011;48550;40.588;49.684;2023-09-12T04:51:04;6.85;;;3.17;;
60370;SDS011;48550;40.588;49.684;2023-09-12T04:53:30;6.85;;;3.13;;
60370;SDS011;48550;40.588;49.684;2023-09-12T04:56:03;17.25;;;10.57;;
60370;SDS011;48550;40.588;49.684;2023-09-12T04:58:31;8.18;;;4.25;;
60370;SDS011;48550;40.588;49.684;2023-09-12T05:00:57;2.92;;;2.22;;
60370;SDS011;48550;40.588;49.684;2023-09-12T05:03:23;0.40;;;0.40;;
60370;SDS011;48550;40.588;49.684;2023-09-12T05:05:49;0.20;;;0.20;;
60370;SDS011;48550;40.588;49.684;2023-09-12T05:08:17;0.30;;;0.30;;
60370;SDS011;48550;40.588;49.684;2023-09-12T05:10:43;0.20;;;0.20;;
60370;SDS011;48550;40.588;49.684;2023-09-12T05:13:09;0.40;;;0.40;;
60370;SDS011;48550;40.588;49.684;2023-09-12T05:15:35;0.95;;;0.95;;
60370;SDS011;48550;40.588;49.684;2023-09-12T05:18:04;0.20;;;0.20;;
60370;SDS011;48550;40.588;49.684;2023-09-12T05:20:33;0.20;;;0.20;;
60370;SDS011;48550;40.588;49.684;2023-09-12T05:22:59;0.20;;;0.20;;
60370;SDS011;48550;40.588;49.684;2023-09-12T05:25:25;0.30;;;0.30;;
60370;SDS011;48550;40.588;49.684;2023-09-12T05:27:52;0.20;;;0.20;;
60370;SDS011;48550;40.588;49.684;2023-09-12T05:30:18;0.30;;;0.30;;
60370;SDS011;48550;40.588;49.684;2023-09-12T05:32:43;0.20;;;0.20;;
60370;SDS011;48550;40.588;49.684;2023-09-12T05:35:09;0.47;;;0.47;;
60370;SDS011;48550;40.588;49.684;2023-09-12T05:37:35;0.22;;;0.22;;
60370;SDS011;48550;40.588;49.684;2023-09-12T05:40:01;0.80;;;0.80;;
60370;SDS011;48550;40.588;49.684;2023-09-12T05:42:28;0.52;;;0.52;;
60370;SDS011;48550;40.588;49.684;2023-09-12T05:44:53;0.50;;;0.50;;
60370;SDS011;48550;40.588;49.684;2023-09-12T05:47:19;0.60;;;0.60;;
60370;SDS011;48550;40.588;49.684;2023-09-12T05:49:46;0.50;;;0.50;;
60370;SDS011;48550;40.588;49.684;2023-09-12T05:52:11;0.45;;;0.45;;
60370;SDS011;48550;40.588;49.684;2023-09-12T05:54:37;0.65;;;0.47;;
60370;SDS011;48550;40.588;49.684;2023-09-12T05:57:04;0.40;;;0.40;;
60370;SDS011;48550;40.588;49.684;2023-09-12T05:59:30;0.20;;;0.20;;
60370;SDS011;48550;40.588;49.684;2023-09-12T06:01:56;0.55;;;0.55;;
60370;SDS011;48550;40.588;49.684;2023-09-12T06:04:21;0.38;;;0.38;;
60370;SDS011;48550;40.588;49.684;2023-09-12T06:06:47;0.28;;;0.28;;
60370;SDS011;48550;40.588;49.684;2023-09-12T06:09:13;0.40;;;0.40;;
60370;SDS011;48550;40.588;49.684;2023-09-12T06:11:38;0.52;;;0.52;;
60370;SDS011;48550;40.588;49.684;2023-09-12T06:14:04;0.30;;;0.30;;
60370;SDS011;48550;40.588;49.684;2023-09-12T06:16:30;0.30;;;0.30;;
60370;SDS011;48550;40.588;49.684;2023-09-12T06:18:55;0.22;;;0.22;;
60370;SDS011;48550;40.588;49.684;2023-09-12T06:21:21;0.60;;;0.60;;
60370;SDS011;48550;40.588;49.684;2023-09-12T06:23:47;0.35;;;0.35;;
60370;SDS011;48550;40.588;49.684;2023-09-12T06:26:33;0.55;;;0.55;;
60370;SDS011;48550;40.588;49.684;2023-09-12T06:28:59;0.20;;;0.20;;
60370;SDS011;48550;40.588;49.684;2023-09-12T06:31:24;0.30;;;0.30;;
60370;SDS011;48550;40.588;49.684;2023-09-12T06:33:50;0.35;;;0.35;;
60370;SDS011;48550;40.588;49.684;2023-09-12T06:36:16;0.20;;;0.20;;
60370;SDS011;48550;40.588;49.684;2023-09-12T06:38:41;0.20;;;0.20;;
60370;SDS011;48550;40.588;49.684;2023-09-12T06:41:07;0.88;;;0.88;;
60370;SDS011;48550;40.588;49.684;2023-09-12T06:43:33;0.57;;;0.57;;
60370;SDS011;48550;40.588;49.684;2023-09-12T06:45:58;0.63;;;0.63;;
60370;SDS011;48550;40.588;49.684;2023-09-12T06:48:24;0.20;;;0.20;;
60370;SDS011;48550;40.588;49.684;2023-09-12T06:50:50;0.40;;;0.40;;
60370;SDS011;48550;40.588;49.684;2023-09-12T06:53:15;0.57;;;0.57;;
60370;SDS011;48550;40.588;49.684;2023-09-12T06:55:41;0.38;;;0.38;;
60370;SDS011;48550;40.588;49.684;2023-09-12T06:58:07;0.40;;;0.40;;
60370;SDS011;48550;40.588;49.684;2023-09-12T07:00:33;0.50;;;0.50;;
60370;SDS011;48550;40.588;49.684;2023-09-12T07:02:58;0.60;;;0.60;;
60370;SDS011;48550;40.588;49.684;2023-09-12T07:05:24;0.30;;;0.30;;
60370;SDS011;48550;40.588;49.684;2023-09-12T10:15:57;13.10;;;3.13;;
60370;SDS011;48550;40.588;49.684;2023-09-12T10:18:26;7.57;;;2.63;;
60370;SDS011;48550;40.588;49.684;2023-09-12T10:20:58;7.30;;;3.25;;
60370;SDS011;48550;40.588;49.684;2023-09-12T10:23:44;6.25;;;3.10;;
60370;SDS011;48550;40.588;49.684;2023-09-12T10:26:11;6.32;;;3.42;;
60370;SDS011;48550;40.588;49.684;2023-09-12T10:28:42;4.78;;;2.30;;
60370;SDS011;48550;40.588;49.684;2023-09-12T10:31:08;5.25;;;1.80;;
60370;SDS011;48550;40.588;49.684;2023-09-12T10:33:36;3.72;;;1.83;;
60370;SDS011;48550;40.588;49.684;2023-09-12T10:36:03;3.00;;;1.80;;
60370;SDS011;48550;40.588;49.684;2023-09-12T10:38:29;5.90;;;1.90;;
60370;SDS011;48550;40.588;49.684;2023-09-12T10:41:01;6.30;;;2.37;;
60370;SDS011;48550;40.588;49.684;2023-09-12T10:43:29;3.28;;;2.00;;
60370;SDS011;48550;40.588;49.684;2023-09-12T10:45:58;5.22;;;2.17;;
60370;SDS011;48550;40.588;49.684;2023-09-12T10:48:27;7.35;;;2.92;;
60370;SDS011;48550;40.588;49.684;2023-09-12T10:50:55;5.82;;;2.28;;
60370;SDS011;48550;40.588;49.684;2023-09-12T10:53:23;5.53;;;2.28;;
60370;SDS011;48550;40.588;49.684;2023-09-12T11:01:33;7.07;;;2.20;;
60370;SDS011;48550;40.588;49.684;2023-09-12T11:06:45;5.05;;;2.10;;
60370;SDS011;48550;40.588;49.684;2023-09-12T11:11:49;3.83;;;2.22;;
60370;SDS011;48550;40.588;49.684;2023-09-12T11:14:20;4.80;;;1.65;;
60370;SDS011;48550;40.588;49.684;2023-09-12T11:19:43;4.65;;;2.10;;
60370;SDS011;48550;40.588;49.684;2023-09-12T11:22:23;4.63;;;2.10;;
60370;SDS011;48550;40.588;49.684;2023-09-12T11:24:53;6.45;;;2.05;;
60370;SDS011;48550;40.588;49.684;2023-09-12T11:27:21;4.93;;;2.00;;
60370;SDS011;48550;40.588;49.684;2023-09-12T11:29:48;5.50;;;2.00;;
60370;SDS011;48550;40.588;49.684;2023-09-12T11:35:15;3.58;;;2.08;;
60370;SDS011;48550;40.588;49.684;2023-09-12T11:37:48;7.20;;;2.22;;
60370;SDS011;48550;40.588;49.684;2023-09-12T11:40:16;5.97;;;2.72;;
60370;SDS011;48550;40.588;49.684;2023-09-12T11:42:43;4.35;;;2.40;;
60370;SDS011;48550;40.588;49.684;2023-09-12T11:45:14;7.97;;;3.03;;
60370;SDS011;48550;40.588;49.684;2023-09-12T11:47:43;8.32;;;2.70;;
60370;SDS011;48550;40.588;49.684;2023-09-12T11:53:05;6.65;;;2.63;;
60370;SDS011;48550;40.588;49.684;2023-09-12T11:55:54;6.10;;;2.90;;
60370;SDS011;48550;40.588;49.684;2023-09-12T11:58:27;5.68;;;2.45;;
60370;SDS011;48550;40.588;49.684;2023-09-12T12:00:54;6.78;;;2.67;;
60370;SDS011;48550;40.588;49.684;2023-09-12T12:03:22;5.60;;;2.50;;
60370;SDS011;48550;40.588;49.684;2023-09-12T12:05:49;12.45;;;3.75;;
60370;SDS011;48550;40.588;49.684;2023-09-12T12:08:16;14.23;;;5.68;;
60370;SDS011;48550;40.588;49.684;2023-09-12T12:10:43;7.50;;;3.05;;
60370;SDS011;48550;40.588;49.684;2023-09-12T12:13:17;5.47;;;2.80;;
60370;SDS011;48550;40.588;49.684;2023-09-12T12:15:43;13.38;;;3.38;;
60370;SDS011;48550;40.588;49.684;2023-09-12T12:18:09;9.63;;;4.85;;
60370;SDS011;48550;40.588;49.684;2023-09-12T12:20:35;5.45;;;3.33;;
60370;SDS011;48550;40.588;49.684;2023-09-12T12:23:01;6.00;;;2.80;;
60370;SDS011;48550;40.588;49.684;2023-09-12T12:25:31;8.80;;;3.10;;
60370;SDS011;48550;40.588;49.684;2023-09-12T12:27:59;10.00;;;4.00;;
60370;SDS011;48550;40.588;49.684;2023-09-12T12:30:25;5.70;;;2.42;;
60370;SDS011;48550;40.588;49.684;2023-09-12T12:32:51;6.70;;;2.78;;
60370;SDS011;48550;40.588;49.684;2023-09-12T12:35:20;3.40;;;2.10;;
60370;SDS011;48550;40.588;49.684;2023-09-12T12:37:48;6.28;;;3.55;;
60370;SDS011;48550;40.588;49.684;2023-09-12T12:40:15;6.72;;;3.20;;
60370;SDS011;48550;40.588;49.684;2023-09-12T12:42:42;6.80;;;2.60;;
60370;SDS011;48550;40.588;49.684;2023-09-12T12:45:12;4.55;;;2.70;;
60370;SDS011;48550;40.588;49.684;2023-09-12T12:47:38;5.75;;;2.60;;
60370;SDS011;48550;40.588;49.684;2023-09-12T12:50:09;4.13;;;2.50;;
60370;SDS011;48550;40.588;49.684;2023-09-12T12:52:39;6.15;;;2.20;;
60370;SDS011;48550;40.588;49.684;2023-09-12T12:55:11;9.23;;;2.53;;
60370;SDS011;48550;40.588;49.684;2023-09-12T12:57:40;5.03;;;2.28;;
60370;SDS011;48550;40.588;49.684;2023-09-12T13:00:14;6.93;;;3.38;;
60370;SDS011;48550;40.588;49.684;2023-09-12T13:02:41;7.78;;;2.90;;
60370;SDS011;48550;40.588;49.684;2023-09-12T13:05:27;5.93;;;3.00;;
60370;SDS011;48550;40.588;49.684;2023-09-12T13:07:54;7.95;;;2.83;;
60370;SDS011;48550;40.588;49.684;2023-09-12T13:10:20;6.88;;;2.65;;
60370;SDS011;48550;40.588;49.684;2023-09-12T13:12:47;6.78;;;3.00;;
60370;SDS011;48550;40.588;49.684;2023-09-12T13:15:13;5.50;;;2.65;;
60370;SDS011;48550;40.588;49.684;2023-09-12T13:17:43;7.75;;;2.65;;
60370;SDS011;48550;40.588;49.684;2023-09-12T13:20:09;6.80;;;2.35;;
60370;SDS011;48550;40.588;49.684;2023-09-12T13:22:36;3.83;;;2.63;;
60370;SDS011;48550;40.588;49.684;2023-09-12T13:25:02;8.18;;;2.70;;
60370;SDS011;48550;40.588;49.684;2023-09-12T13:27:28;4.40;;;2.53;;
60370;SDS011;48550;40.588;49.684;2023-09-12T13:29:54;4.25;;;2.63;;
60370;SDS011;48550;40.588;49.684;2023-09-12T13:32:20;11.32;;;2.88;;
60370;SDS011;48550;40.588;49.684;2023-09-12T13:34:46;5.07;;;2.33;;
60370;SDS011;48550;40.588;49.684;2023-09-12T13:37:11;4.60;;;2.13;;
60370;SDS011;48550;40.588;49.684;2023-09-12T13:39:37;5.70;;;2.40;;
60370;SDS011;48550;40.588;49.684;2023-09-12T13:42:06;4.35;;;2.08;;
60370;SDS011;48550;40.588;49.684;2023-09-12T13:44:33;4.72;;;2.17;;
60370;SDS011;48550;40.588;49.684;2023-09-12T13:46:59;5.90;;;2.63;;
60370;SDS011;48550;40.588;49.684;2023-09-12T13:49:25;3.90;;;1.90;;
60370;SDS011;48550;40.588;49.684;2023-09-12T13:51:50;4.03;;;1.98;;
60370;SDS011;48550;40.588;49.684;2023-09-12T13:54:16;6.38;;;2.78;;
60370;SDS011;48550;40.588;49.684;2023-09-12T13:56:42;7.95;;;3.67;;
60370;SDS011;48550;40.588;49.684;2023-09-12T13:59:08;5.40;;;2.50;;
60370;SDS011;48550;40.588;49.684;2023-09-12T14:01:34;5.22;;;2.67;;
60370;SDS011;48550;40.588;49.684;2023-09-12T14:04:00;4.88;;;2.53;;
60370;SDS011;48550;40.588;49.684;2023-09-12T14:06:29;5.13;;;2.40;;
60370;SDS011;48550;40.588;49.684;2023-09-12T14:08:55;6.95;;;2.40;;
60370;SDS011;48550;40.588;49.684;2023-09-12T14:11:21;4.20;;;2.35;;
60370;SDS011;48550;40.588;49.684;2023-09-12T14:13:47;2.53;;;1.80;;
60370;SDS011;48550;40.588;49.684;2023-09-12T14:16:13;5.90;;;2.33;;
60370;SDS011;48550;40.588;49.684;2023-09-12T14:18:39;6.30;;;3.47;;
60370;SDS011;48550;40.588;49.684;2023-09-12T14:21:04;8.70;;;3.17;;
60370;SDS011;48550;40.588;49.684;2023-09-12T14:23:30;7.40;;;2.97;;
60370;SDS011;48550;40.588;49.684;2023-09-12T14:25:56;11.32;;;2.72;;
60370;SDS011;48550;40.588;49.684;2023-09-12T14:28:21;4.68;;;2.53;;
60370;SDS011;48550;40.588;49.684;2023-09-12T14:30:47;6.07;;;2.50;;
60370;SDS011;48550;40.588;49.684;2023-09-12T14:33:14;9.10;;;3.28;;
60370;SDS011;48550;40.588;49.684;2023-09-12T14:35:40;8.18;;;2.72;;
60370;SDS011;48550;40.588;49.684;2023-09-12T14:38:09;5.65;;;2.38;;
60370;SDS011;48550;40.588;49.684;2023-09-12T14:40:35;7.47;;;4.13;;
60370;SDS011;48550;40.588;49.684;2023-09-12T14:43:01;6.70;;;2.22;;
60370;SDS011;48550;40.588;49.684;2023-09-12T14:45:27;3.88;;;2.03;;
60370;SDS011;48550;40.588;49.684;2023-09-12T14:47:53;6.07;;;2.65;;
60370;SDS011;48550;40.588;49.684;2023-09-12T14:50:21;9.43;;;2.60;;
60370;SDS011;48550;40.588;49.684;2023-09-12T14:52:49;3.63;;;2.20;;
60370;SDS011;48550;40.588;49.684;2023-09-12T14:55:15;5.13;;;3.17;;
60370;SDS011;48550;40.588;49.684;2023-09-12T14:57:41;4.00;;;2.55;;
60370;SDS011;48550;40.588;49.684;2023-09-12T15:00:07;6.68;;;2.60;;
60370;SDS011;48550;40.588;49.684;2023-09-12T15:02:33;6.07;;;3.00;;
60370;SDS011;48550;40.588;49.684;2023-09-12T15:05:00;3.70;;;2.30;;
60370;SDS011;48550;40.588;49.684;2023-09-12T15:07:28;3.03;;;1.90;;
60370;SDS011;48550;40.588;49.684;2023-09-12T15:09:55;7.07;;;2.60;;
60370;SDS011;48550;40.588;49.684;2023-09-12T15:12:21;4.50;;;2.47;;
60370;SDS011;48550;40.588;49.684;2023-09-12T15:14:47;3.10;;;2.20;;
60370;SDS011;48550;40.588;49.684;2023-09-12T15:17:15;4.32;;;2.00;;
60370;SDS011;48550;40.588;49.684;2023-09-12T15:19:40;7.40;;;2.67;;
60370;SDS011;48550;40.588;49.684;2023-09-12T15:22:07;3.83;;;2.13;;
60370;SDS011;48550;40.588;49.684;2023-09-12T15:24:33;5.78;;;2.00;;
60370;SDS011;48550;40.588;49.684;2023-09-12T15:26:59;6.38;;;1.80;;
60370;SDS011;48550;40.588;49.684;2023-09-12T15:29:25;6.65;;;2.17;;
60370;SDS011;48550;40.588;49.684;2023-09-12T15:31:50;5.28;;;2.10;;
60370;SDS011;48550;40.588;49.684;2023-09-12T15:34:16;3.75;;;2.47;;
60370;SDS011;48550;40.588;49.684;2023-09-12T15:36:45;5.20;;;2.25;;
60370;SDS011;48550;40.588;49.684;2023-09-12T15:39:12;5.03;;;2.75;;
60370;SDS011;48550;40.588;49.684;2023-09-12T15:41:38;2.55;;;1.45;;
60370;SDS011;48550;40.588;49.684;2023-09-12T15:44:05;3.42;;;2.15;;
60370;SDS011;48550;40.588;49.684;2023-09-12T15:46:31;8.30;;;3.17;;
60370;SDS011;48550;40.588;49.684;2023-09-12T15:48:57;7.78;;;3.00;;
60370;SDS011;48550;40.588;49.684;2023-09-12T15:51:23;4.88;;;2.25;;
60370;SDS011;48550;40.588;49.684;2023-09-12T15:53:49;7.20;;;2.47;;
60370;SDS011;48550;40.588;49.684;2023-09-12T15:56:15;6.30;;;2.50;;
60370;SDS011;48550;40.588;49.684;2023-09-12T15:58:41;4.00;;;2.17;;
60370;SDS011;48550;40.588;49.684;2023-09-12T16:01:07;4.95;;;2.38;;
60370;SDS011;48550;40.588;49.684;2023-09-12T16:03:32;6.65;;;3.42;;
60370;SDS011;48550;40.588;49.684;2023-09-12T16:05:58;4.72;;;2.70;;
60370;SDS011;48550;40.588;49.684;2023-09-12T16:08:24;5.13;;;2.45;;
60370;SDS011;48550;40.588;49.684;2023-09-12T16:10:50;3.60;;;2.05;;
60370;SDS011;48550;40.588;49.684;2023-09-12T16:13:16;5.57;;;2.35;;
60370;SDS011;48550;40.588;49.684;2023-09-12T16:15:41;5.43;;;2.72;;
60370;SDS011;48550;40.588;49.684;2023-09-12T16:18:07;10.18;;;3.47;;
60370;SDS011;48550;40.588;49.684;2023-09-12T16:20:33;7.25;;;3.22;;
60370;SDS011;48550;40.588;49.684;2023-09-12T16:22:58;5.78;;;3.08;;
60370;SDS011;48550;40.588;49.684;2023-09-12T16:25:25;9.63;;;2.80;;
60370;SDS011;48550;40.588;49.684;2023-09-12T16:27:50;5.70;;;2.47;;
60370;SDS011;48550;40.588;49.684;2023-09-12T16:30:16;5.35;;;2.72;;
60370;SDS011;48550;40.588;49.684;2023-09-12T16:32:42;7.45;;;3.42;;
60370;SDS011;48550;40.588;49.684;2023-09-12T16:35:08;4.60;;;2.08;;
60370;SDS011;48550;40.588;49.684;2023-09-12T16:37:34;4.53;;;2.53;;
60370;SDS011;48550;40.588;49.684;2023-09-12T16:39:59;6.28;;;2.33;;
60370;SDS011;48550;40.588;49.684;2023-09-12T16:42:29;5.43;;;2.22;;
60370;SDS011;48550;40.588;49.684;2023-09-12T16:44:58;3.33;;;1.95;;
60370;SDS011;48550;40.588;49.684;2023-09-12T16:47:25;3.65;;;2.33;;
60370;SDS011;48550;40.588;49.684;2023-09-12T16:49:52;3.30;;;1.80;;
60370;SDS011;48550;40.588;49.684;2023-09-12T16:52:18;4.20;;;2.17;;
60370;SDS011;48550;40.588;49.684;2023-09-12T16:54:44;3.65;;;2.00;;
60370;SDS011;48550;40.588;49.684;2023-09-12T16:57:09;3.30;;;1.80;;
60370;SDS011;48550;40.588;49.684;2023-09-12T16:59:39;3.97;;;2.10;;
60370;SDS011;48550;40.588;49.684;2023-09-12T17:02:07;3.45;;;2.05;;
60370;SDS011;48550;40.588;49.684;2023-09-12T17:04:32;5.63;;;1.83;;
60370;SDS011;48550;40.588;49.684;2023-09-12T17:06:58;4.00;;;1.83;;
60370;SDS011;48550;40.588;49.684;2023-09-12T17:09:24;6.72;;;2.10;;
60370;SDS011;48550;40.588;49.684;2023-09-12T17:11:49;9.77;;;2.70;;
60370;SDS011;48550;40.588;49.684;2023-09-12T17:14:16;6.68;;;2.97;;
60370;SDS011;48550;40.588;49.684;2023-09-12T17:16:41;2.35;;;1.70;;
60370;SDS011;48550;40.588;49.684;2023-09-12T17:19:07;10.18;;;4.53;;
60370;SDS011;48550;40.588;49.684;2023-09-12T17:21:33;8.93;;;4.97;;
60370;SDS011;48550;40.588;49.684;2023-09-12T17:23:58;3.15;;;1.90;;
60370;SDS011;48550;40.588;49.684;2023-09-12T17:26:24;1.58;;;1.38;;
60370;SDS011;48550;40.588;49.684;2023-09-12T17:28:50;4.55;;;2.03;;
60370;SDS011;48550;40.588;49.684;2023-09-12T17:31:16;5.53;;;2.25;;
60370;SDS011;48550;40.588;49.684;2023-09-12T17:33:42;3.40;;;1.80;;
60370;SDS011;48550;40.588;49.684;2023-09-12T17:36:08;3.90;;;1.90;;
60370;SDS011;48550;40.588;49.684;2023-09-12T17:38:34;2.50;;;1.60;;
60370;SDS011;48550;40.588;49.684;2023-09-12T17:41:00;2.22;;;1.45;;
60370;SDS011;48550;40.588;49.684;2023-09-12T17:43:26;1.77;;;1.20;;
60370;SDS011;48550;40.588;49.684;2023-09-12T17:45:51;2.58;;;1.55;;
60370;SDS011;48550;40.588;49.684;2023-09-12T17:48:19;3.25;;;1.60;;
60370;SDS011;48550;40.588;49.684;2023-09-12T17:50:49;4.30;;;1.95;;
60370;SDS011;48550;40.588;49.684;2023-09-12T17:53:16;3.93;;;2.10;;
60370;SDS011;48550;40.588;49.684;2023-09-12T17:55:45;3.65;;;1.92;;
60370;SDS011;48550;40.588;49.684;2023-09-12T17:58:11;1.70;;;1.38;;
60370;SDS011;48550;40.588;49.684;2023-09-12T18:00:36;4.03;;;1.85;;
60370;SDS011;48550;40.588;49.684;2023-09-12T18:03:02;5.38;;;2.40;;
60370;SDS011;48550;40.588;49.684;2023-09-12T18:05:28;2.53;;;1.60;;